sensor_id;sensor_type;location;lat;lon;timestamp;pressure;altitude;pressure_sealevel;temperature;humidity
23616;BME280;11985;49.404;7.734;2023-11-19T00:03:00;97160.13;;;6.97;100.00
23616;BME280;11985;49.404;7.734;2023-11-19T00:08:02;97160.72;;;6.99;100.00
23616;BME280;11985;49.404;7.734;2023-11-19T00:13:05;97155.13;;;7.02;100.00
23616;BME280;11985;49.404;7.734;2023-11-19T00:18:10;97146.88;;;7.05;100.00
23616;BME280;11985;49.404;7.734;2023-11-19T00:23:12;97143.91;;;7.08;100.00
23616;BME280;11985;49.404;7.734;2023-11-19T00:28:15;97127.84;;;7.11;100.00
23616;BME280;11985;49.404;7.734;2023-11-19T00:33:19;97131.06;;;7.13;100.00
23616;BME280;11985;49.404;7.734;2023-11-19T00:38:21;97124.81;;;7.14;100.00
23616;BME280;11985;49.404;7.734;2023-11-19T00:43:24;97138.19;;;7.19;100.00
23616;BME280;11985;49.404;7.734;2023-11-19T00:48:26;97124.88;;;7.21;100.00
23616;BME280;11985;49.404;7.734;2023-11-19T00:53:28;97115.06;;;7.23;100.00
23616;BME280;11985;49.404;7.734;2023-11-19T00:58:31;97108.59;;;7.25;100.00
23616;BME280;11985;49.404;7.734;2023-11-19T01:03:33;97115.09;;;7.29;100.00
23616;BME280;11985;49.404;7.734;2023-11-19T01:08:34;97119.13;;;7.32;100.00
23616;BME280;11985;49.404;7.734;2023-11-19T01:13:38;97120.41;;;7.36;100.00
23616;BME280;11985;49.404;7.734;2023-11-19T01:18:39;97131.31;;;7.39;100.00
23616;BME280;11985;49.404;7.734;2023-11-19T01:23:41;97128.31;;;7.43;100.00
23616;BME280;11985;49.404;7.734;2023-11-19T01:28:45;97113.59;;;7.41;100.00
23616;BME280;11985;49.404;7.734;2023-11-19T01:33:48;97106.97;;;7.46;100.00
23616;BME280;11985;49.404;7.734;2023-11-19T01:38:50;97091.50;;;7.51;100.00
23616;BME280;11985;49.404;7.734;2023-11-19T01:43:53;97088.06;;;7.50;100.00
23616;BME280;11985;49.404;7.734;2023-11-19T01:48:55;97097.97;;;7.55;100.00
23616;BME280;11985;49.404;7.734;2023-11-19T01:53:58;97093.97;;;7.59;100.00
23616;BME280;11985;49.404;7.734;2023-11-19T01:59:02;97089.34;;;7.61;100.00
23616;BME280;11985;49.404;7.734;2023-11-19T02:04:05;97077.47;;;7.65;100.00
23616;BME280;11985;49.404;7.734;2023-11-19T02:09:07;97065.00;;;7.67;100.00
23616;BME280;11985;49.404;7.734;2023-11-19T02:14:10;97062.78;;;7.71;100.00
23616;BME280;11985;49.404;7.734;2023-11-19T02:19:13;97067.47;;;7.75;100.00
23616;BME280;11985;49.404;7.734;2023-11-19T02:24:17;97058.59;;;7.76;100.00
23616;BME280;11985;49.404;7.734;2023-11-19T02:29:24;97056.19;;;7.81;100.00
23616;BME280;11985;49.404;7.734;2023-11-19T02:34:26;97055.41;;;7.87;100.00
23616;BME280;11985;49.404;7.734;2023-11-19T02:39:28;97046.56;;;7.88;100.00
23616;BME280;11985;49.404;7.734;2023-11-19T02:44:31;97041.34;;;7.88;100.00
23616;BME280;11985;49.404;7.734;2023-11-19T02:49:32;97031.44;;;7.90;100.00
23616;BME280;11985;49.404;7.734;2023-11-19T02:54:34;97030.06;;;7.94;100.00
23616;BME280;11985;49.404;7.734;2023-11-19T02:59:38;97024.22;;;7.99;100.00
23616;BME280;11985;49.404;7.734;2023-11-19T03:04:41;97031.91;;;8.01;100.00
23616;BME280;11985;49.404;7.734;2023-11-19T03:09:45;97028.69;;;8.05;100.00
23616;BME280;11985;49.404;7.734;2023-11-19T03:14:48;97022.84;;;8.10;100.00
23616;BME280;11985;49.404;7.734;2023-11-19T03:19:51;97025.31;;;8.18;100.00
23616;BME280;11985;49.404;7.734;2023-11-19T03:24:52;97010.81;;;8.22;100.00
23616;BME280;11985;49.404;7.734;2023-11-19T03:29:56;97020.91;;;8.32;100.00
23616;BME280;11985;49.404;7.734;2023-11-19T03:34:57;97010.03;;;8.35;100.00
23616;BME280;11985;49.404;7.734;2023-11-19T03:40:00;97014.91;;;8.38;100.00
23616;BME280;11985;49.404;7.734;2023-11-19T03:45:03;97012.69;;;8.41;100.00
23616;BME280;11985;49.404;7.734;2023-11-19T03:50:06;97015.53;;;8.46;100.00
23616;BME280;11985;49.404;7.734;2023-11-19T03:55:08;97021.38;;;8.49;100.00
23616;BME280;11985;49.404;7.734;2023-11-19T04:00:12;97005.25;;;8.52;100.00
23616;BME280;11985;49.404;7.734;2023-11-19T04:05:14;97009.72;;;8.58;100.00
23616;BME280;11985;49.404;7.734;2023-11-19T04:10:16;97005.69;;;8.62;100.00
23616;BME280;11985;49.404;7.734;2023-11-19T04:15:20;97012.13;;;8.59;100.00
23616;BME280;11985;49.404;7.734;2023-11-19T04:20:21;97019.41;;;8.64;100.00
23616;BME280;11985;49.404;7.734;2023-11-19T04:25:23;97004.88;;;8.68;100.00
23616;BME280;11985;49.404;7.734;2023-11-19T04:30:27;97021.25;;;8.70;100.00
23616;BME280;11985;49.404;7.734;2023-11-19T04:35:29;97005.91;;;8.73;100.00
23616;BME280;11985;49.404;7.734;2023-11-19T04:40:30;97002.25;;;8.81;100.00
23616;BME280;11985;49.404;7.734;2023-11-19T04:45:36;96990.34;;;8.85;100.00
23616;BME280;11985;49.404;7.734;2023-11-19T04:50:38;97001.88;;;8.91;100.00
23616;BME280;11985;49.404;7.734;2023-11-19T04:55:39;96999.25;;;8.97;100.00
23616;BME280;11985;49.404;7.734;2023-11-19T05:00:42;96987.94;;;9.04;100.00
23616;BME280;11985;49.404;7.734;2023-11-19T05:05:44;96998.03;;;9.20;100.00
23616;BME280;11985;49.404;7.734;2023-11-19T05:10:46;97011.16;;;9.26;100.00
23616;BME280;11985;49.404;7.734;2023-11-19T05:15:49;97006.09;;;9.38;100.00
23616;BME280;11985;49.404;7.734;2023-11-19T05:20:51;97008.94;;;9.50;100.00
23616;BME280;11985;49.404;7.734;2023-11-19T05:25:52;97001.63;;;9.52;100.00
23616;BME280;11985;49.404;7.734;2023-11-19T05:30:56;96991.09;;;9.59;100.00
23616;BME280;11985;49.404;7.734;2023-11-19T05:35:57;97000.78;;;9.65;100.00
23616;BME280;11985;49.404;7.734;2023-11-19T05:40:59;96996.34;;;9.72;100.00
23616;BME280;11985;49.404;7.734;2023-11-19T05:46:02;96993.69;;;9.78;100.00
23616;BME280;11985;49.404;7.734;2023-11-19T05:51:04;97002.97;;;9.81;100.00
23616;BME280;11985;49.404;7.734;2023-11-19T05:56:06;97011.06;;;9.86;100.00
23616;BME280;11985;49.404;7.734;2023-11-19T06:01:11;97013.28;;;9.89;100.00
23616;BME280;11985;49.404;7.734;2023-11-19T06:06:12;97018.13;;;9.92;100.00
23616;BME280;11985;49.404;7.734;2023-11-19T06:11:14;97013.66;;;9.93;100.00
23616;BME280;11985;49.404;7.734;2023-11-19T06:16:20;97026.19;;;9.97;100.00
23616;BME280;11985;49.404;7.734;2023-11-19T06:21:21;97020.94;;;9.97;100.00
23616;BME280;11985;49.404;7.734;2023-11-19T06:26:23;97022.16;;;10.01;100.00
23616;BME280;11985;49.404;7.734;2023-11-19T06:31:26;97021.31;;;10.08;100.00
23616;BME280;11985;49.404;7.734;2023-11-19T06:36:28;97028.19;;;10.09;100.00
23616;BME280;11985;49.404;7.734;2023-11-19T06:41:29;97033.84;;;10.12;100.00
23616;BME280;11985;49.404;7.734;2023-11-19T06:46:33;97033.03;;;10.12;100.00
23616;BME280;11985;49.404;7.734;2023-11-19T06:51:34;97049.84;;;10.11;100.00
23616;BME280;11985;49.404;7.734;2023-11-19T06:56:36;97041.34;;;10.09;100.00
23616;BME280;11985;49.404;7.734;2023-11-19T07:01:39;97041.56;;;10.07;100.00
23616;BME280;11985;49.404;7.734;2023-11-19T07:06:43;97046.22;;;10.05;100.00
23616;BME280;11985;49.404;7.734;2023-11-19T07:11:46;97043.78;;;10.03;100.00
23616;BME280;11985;49.404;7.734;2023-11-19T07:16:49;97039.53;;;10.02;100.00
23616;BME280;11985;49.404;7.734;2023-11-19T07:21:51;97042.75;;;10.04;100.00
23616;BME280;11985;49.404;7.734;2023-11-19T07:26:54;97058.94;;;10.15;100.00
23616;BME280;11985;49.404;7.734;2023-11-19T07:31:57;97089.09;;;10.25;100.00
23616;BME280;11985;49.404;7.734;2023-11-19T07:36:59;97072.69;;;10.30;100.00
23616;BME280;11985;49.404;7.734;2023-11-19T07:42:03;97076.09;;;10.37;100.00
23616;BME280;11985;49.404;7.734;2023-11-19T07:47:06;97084.38;;;10.41;100.00
23616;BME280;11985;49.404;7.734;2023-11-19T07:52:07;97078.72;;;10.44;100.00
23616;BME280;11985;49.404;7.734;2023-11-19T07:57:09;97080.69;;;10.48;100.00
23616;BME280;11985;49.404;7.734;2023-11-19T08:02:12;97087.16;;;10.52;100.00
23616;BME280;11985;49.404;7.734;2023-11-19T08:07:15;97087.13;;;10.59;100.00
23616;BME280;11985;49.404;7.734;2023-11-19T08:12:16;97090.34;;;10.68;100.00
23616;BME280;11985;49.404;7.734;2023-11-19T08:17:19;97080.56;;;10.75;100.00
23616;BME280;11985;49.404;7.734;2023-11-19T08:22:23;97092.72;;;10.76;100.00
23616;BME280;11985;49.404;7.734;2023-11-19T08:27:25;97085.44;;;10.78;100.00
23616;BME280;11985;49.404;7.734;2023-11-19T08:32:28;97104.47;;;10.80;100.00
23616;BME280;11985;49.404;7.734;2023-11-19T08:37:30;97095.97;;;10.78;100.00
23616;BME280;11985;49.404;7.734;2023-11-19T08:42:32;97088.66;;;10.80;100.00
23616;BME280;11985;49.404;7.734;2023-11-19T08:47:35;97085.44;;;10.78;100.00
23616;BME280;11985;49.404;7.734;2023-11-19T08:52:36;97088.44;;;10.81;100.00
23616;BME280;11985;49.404;7.734;2023-11-19T08:57:38;97092.66;;;10.89;100.00
23616;BME280;11985;49.404;7.734;2023-11-19T09:02:41;97091.44;;;10.92;100.00
23616;BME280;11985;49.404;7.734;2023-11-19T09:07:43;97084.94;;;10.94;100.00
23616;BME280;11985;49.404;7.734;2023-11-19T09:12:45;97094.19;;;11.03;100.00
23616;BME280;11985;49.404;7.734;2023-11-19T09:17:47;97093.16;;;11.11;100.00
23616;BME280;11985;49.404;7.734;2023-11-19T09:22:49;97104.22;;;11.20;100.00
23616;BME280;11985;49.404;7.734;2023-11-19T09:27:51;97095.28;;;11.27;100.00
23616;BME280;11985;49.404;7.734;2023-11-19T09:32:54;97101.53;;;11.26;100.00
23616;BME280;11985;49.404;7.734;2023-11-19T09:37:56;97113.34;;;11.24;100.00
23616;BME280;11985;49.404;7.734;2023-11-19T09:42:58;97116.72;;;11.31;100.00
23616;BME280;11985;49.404;7.734;2023-11-19T09:48:02;97119.13;;;11.39;100.00
23616;BME280;11985;49.404;7.734;2023-11-19T09:53:04;97118.66;;;11.42;100.00
23616;BME280;11985;49.404;7.734;2023-11-19T09:58:07;97109.94;;;11.42;100.00
23616;BME280;11985;49.404;7.734;2023-11-19T10:03:11;97104.72;;;11.35;100.00
23616;BME280;11985;49.404;7.734;2023-11-19T10:08:13;97106.03;;;11.51;100.00
23616;BME280;11985;49.404;7.734;2023-11-19T10:13:16;97087.66;;;11.62;100.00
23616;BME280;11985;49.404;7.734;2023-11-19T10:18:23;97079.38;;;11.59;100.00
23616;BME280;11985;49.404;7.734;2023-11-19T10:23:25;97090.00;;;11.52;100.00
23616;BME280;11985;49.404;7.734;2023-11-19T10:28:27;97080.31;;;11.46;100.00
23616;BME280;11985;49.404;7.734;2023-11-19T10:33:30;97087.47;;;11.39;100.00
23616;BME280;11985;49.404;7.734;2023-11-19T10:38:31;97079.59;;;11.32;100.00
23616;BME280;11985;49.404;7.734;2023-11-19T10:43:42;97080.78;;;11.36;100.00
23616;BME280;11985;49.404;7.734;2023-11-19T10:48:46;97073.25;;;11.40;100.00
23616;BME280;11985;49.404;7.734;2023-11-19T10:53:49;97062.16;;;11.56;100.00
23616;BME280;11985;49.404;7.734;2023-11-19T10:58:51;97074.16;;;11.77;100.00
23616;BME280;11985;49.404;7.734;2023-11-19T11:03:59;97063.78;;;12.01;100.00
23616;BME280;11985;49.404;7.734;2023-11-19T11:09:01;97054.50;;;12.17;100.00
23616;BME280;11985;49.404;7.734;2023-11-19T11:14:04;97053.75;;;12.28;100.00
23616;BME280;11985;49.404;7.734;2023-11-19T11:19:08;97047.91;;;12.37;100.00
23616;BME280;11985;49.404;7.734;2023-11-19T11:24:32;97063.97;;;12.54;100.00
23616;BME280;11985;49.404;7.734;2023-11-19T11:29:44;97050.75;;;12.73;100.00
23616;BME280;11985;49.404;7.734;2023-11-19T11:35:20;97045.81;;;12.88;100.00
23616;BME280;11985;49.404;7.734;2023-11-19T11:40:26;97040.53;;;12.88;100.00
23616;BME280;11985;49.404;7.734;2023-11-19T11:45:39;97042.31;;;12.64;100.00
23616;BME280;11985;49.404;7.734;2023-11-19T11:50:55;97044.19;;;12.45;100.00
23616;BME280;11985;49.404;7.734;2023-11-19T11:55:59;97039.19;;;12.37;100.00
23616;BME280;11985;49.404;7.734;2023-11-19T12:01:04;97050.41;;;12.32;100.00
23616;BME280;11985;49.404;7.734;2023-11-19T12:06:08;97045.63;;;12.59;100.00
23616;BME280;11985;49.404;7.734;2023-11-19T12:11:10;97049.97;;;12.84;100.00
23616;BME280;11985;49.404;7.734;2023-11-19T12:16:12;97047.66;;;13.17;100.00
23616;BME280;11985;49.404;7.734;2023-11-19T12:21:29;97026.97;;;13.38;100.00
23616;BME280;11985;49.404;7.734;2023-11-19T12:26:33;97042.03;;;13.26;100.00
23616;BME280;11985;49.404;7.734;2023-11-19T12:31:35;97019.34;;;13.06;100.00
23616;BME280;11985;49.404;7.734;2023-11-19T12:36:39;97004.25;;;12.95;100.00
23616;BME280;11985;49.404;7.734;2023-11-19T12:41:52;97014.81;;;12.83;100.00
23616;BME280;11985;49.404;7.734;2023-11-19T12:47:04;97011.38;;;12.83;100.00
23616;BME280;11985;49.404;7.734;2023-11-19T12:52:16;96995.72;;;12.81;100.00
23616;BME280;11985;49.404;7.734;2023-11-19T12:57:18;96997.69;;;12.86;100.00
23616;BME280;11985;49.404;7.734;2023-11-19T13:02:20;96987.59;;;12.94;100.00
23616;BME280;11985;49.404;7.734;2023-11-19T13:07:23;96994.25;;;12.97;100.00
23616;BME280;11985;49.404;7.734;2023-11-19T13:12:25;96993.34;;;13.03;100.00
23616;BME280;11985;49.404;7.734;2023-11-19T13:17:27;96994.75;;;13.06;100.00
23616;BME280;11985;49.404;7.734;2023-11-19T13:22:30;96990.88;;;12.66;100.00
23616;BME280;11985;49.404;7.734;2023-11-19T13:27:31;96991.97;;;12.59;100.00
23616;BME280;11985;49.404;7.734;2023-11-19T13:32:33;96983.38;;;12.63;100.00
23616;BME280;11985;49.404;7.734;2023-11-19T13:37:36;96977.41;;;12.68;100.00
23616;BME280;11985;49.404;7.734;2023-11-19T13:42:38;96975.00;;;12.66;100.00
23616;BME280;11985;49.404;7.734;2023-11-19T13:47:42;96973.59;;;12.64;100.00
23616;BME280;11985;49.404;7.734;2023-11-19T13:52:45;96968.00;;;12.60;100.00
23616;BME280;11985;49.404;7.734;2023-11-19T13:57:48;96979.66;;;12.53;100.00
23616;BME280;11985;49.404;7.734;2023-11-19T14:02:50;96984.03;;;12.59;100.00
23616;BME280;11985;49.404;7.734;2023-11-19T14:07:53;96982.31;;;12.23;100.00
23616;BME280;11985;49.404;7.734;2023-11-19T14:12:57;96984.22;;;12.15;100.00
23616;BME280;11985;49.404;7.734;2023-11-19T14:17:58;96995.22;;;12.12;100.00
23616;BME280;11985;49.404;7.734;2023-11-19T14:23:01;96988.34;;;12.11;100.00
23616;BME280;11985;49.404;7.734;2023-11-19T14:28:03;96981.75;;;12.02;100.00
23616;BME280;11985;49.404;7.734;2023-11-19T14:33:05;97003.91;;;11.83;100.00
23616;BME280;11985;49.404;7.734;2023-11-19T14:38:09;97006.47;;;11.64;100.00
23616;BME280;11985;49.404;7.734;2023-11-19T14:43:10;96996.06;;;11.51;100.00
23616;BME280;11985;49.404;7.734;2023-11-19T14:48:12;96997.97;;;11.44;100.00
23616;BME280;11985;49.404;7.734;2023-11-19T14:53:16;97001.19;;;11.46;100.00
23616;BME280;11985;49.404;7.734;2023-11-19T14:58:18;96987.56;;;11.49;100.00
23616;BME280;11985;49.404;7.734;2023-11-19T15:03:19;96984.34;;;11.47;100.00
23616;BME280;11985;49.404;7.734;2023-11-19T15:08:22;96984.94;;;11.49;100.00
23616;BME280;11985;49.404;7.734;2023-11-19T15:13:24;96980.25;;;11.51;100.00
23616;BME280;11985;49.404;7.734;2023-11-19T15:18:26;96973.06;;;11.40;100.00
23616;BME280;11985;49.404;7.734;2023-11-19T15:23:29;96973.16;;;11.27;100.00
23616;BME280;11985;49.404;7.734;2023-11-19T15:28:31;96968.00;;;11.14;100.00
23616;BME280;11985;49.404;7.734;2023-11-19T15:33:32;96974.56;;;11.04;100.00
23616;BME280;11985;49.404;7.734;2023-11-19T15:38:35;96981.56;;;10.92;100.00
23616;BME280;11985;49.404;7.734;2023-11-19T15:43:37;96986.09;;;10.85;100.00
23616;BME280;11985;49.404;7.734;2023-11-19T15:48:39;96996.28;;;10.75;100.00
23616;BME280;11985;49.404;7.734;2023-11-19T15:53:43;96991.88;;;10.69;100.00
23616;BME280;11985;49.404;7.734;2023-11-19T15:58:47;96995.56;;;10.61;100.00
23616;BME280;11985;49.404;7.734;2023-11-19T16:03:50;96993.34;;;10.58;100.00
23616;BME280;11985;49.404;7.734;2023-11-19T16:08:53;97000.44;;;10.57;100.00
23616;BME280;11985;49.404;7.734;2023-11-19T16:13:56;97010.75;;;10.59;100.00
23616;BME280;11985;49.404;7.734;2023-11-19T16:18:58;97014.19;;;10.60;100.00
23616;BME280;11985;49.404;7.734;2023-11-19T16:24:01;97024.31;;;10.63;100.00
23616;BME280;11985;49.404;7.734;2023-11-19T16:29:03;97029.16;;;10.66;100.00
23616;BME280;11985;49.404;7.734;2023-11-19T16:34:05;97036.06;;;10.67;100.00
23616;BME280;11985;49.404;7.734;2023-11-19T16:39:11;97048.84;;;10.63;100.00
23616;BME280;11985;49.404;7.734;2023-11-19T16:44:13;97046.19;;;10.63;100.00
23616;BME280;11985;49.404;7.734;2023-11-19T16:49:15;97043.34;;;10.65;100.00
23616;BME280;11985;49.404;7.734;2023-11-19T16:54:18;97044.97;;;10.66;100.00
23616;BME280;11985;49.404;7.734;2023-11-19T16:59:20;97051.06;;;10.60;100.00
23616;BME280;11985;49.404;7.734;2023-11-19T17:04:22;97060.44;;;10.55;100.00
23616;BME280;11985;49.404;7.734;2023-11-19T17:09:25;97048.66;;;10.58;100.00
23616;BME280;11985;49.404;7.734;2023-11-19T17:14:26;97066.09;;;10.52;100.00
23616;BME280;11985;49.404;7.734;2023-11-19T17:19:28;97076.63;;;10.52;100.00
23616;BME280;11985;49.404;7.734;2023-11-19T17:24:31;97075.25;;;10.43;100.00
23616;BME280;11985;49.404;7.734;2023-11-19T17:29:33;97078.72;;;10.37;100.00
23616;BME280;11985;49.404;7.734;2023-11-19T17:34:35;97072.28;;;10.33;100.00
23616;BME280;11985;49.404;7.734;2023-11-19T17:39:38;97087.41;;;10.38;100.00
23616;BME280;11985;49.404;7.734;2023-11-19T17:44:39;97085.97;;;10.48;100.00
23616;BME280;11985;49.404;7.734;2023-11-19T17:49:41;97088.03;;;10.40;100.00
23616;BME280;11985;49.404;7.734;2023-11-19T17:54:44;97092.13;;;10.29;100.00
23616;BME280;11985;49.404;7.734;2023-11-19T17:59:46;97101.22;;;10.20;100.00
23616;BME280;11985;49.404;7.734;2023-11-19T18:04:50;97090.13;;;10.04;100.00
23616;BME280;11985;49.404;7.734;2023-11-19T18:09:55;97097.47;;;9.89;100.00
23616;BME280;11985;49.404;7.734;2023-11-19T18:14:56;97099.09;;;9.84;100.00
23616;BME280;11985;49.404;7.734;2023-11-19T18:19:58;97112.84;;;9.79;100.00
23616;BME280;11985;49.404;7.734;2023-11-19T18:25:01;97110.25;;;9.72;100.00
23616;BME280;11985;49.404;7.734;2023-11-19T18:30:04;97119.31;;;9.70;100.00
23616;BME280;11985;49.404;7.734;2023-11-19T18:35:07;97104.38;;;9.64;100.00
23616;BME280;11985;49.404;7.734;2023-11-19T18:40:12;97104.78;;;9.61;100.00
23616;BME280;11985;49.404;7.734;2023-11-19T18:45:19;97112.88;;;9.52;100.00
23616;BME280;11985;49.404;7.734;2023-11-19T18:50:22;97123.00;;;9.56;100.00
23616;BME280;11985;49.404;7.734;2023-11-19T18:55:25;97131.47;;;9.71;100.00
23616;BME280;11985;49.404;7.734;2023-11-19T19:00:28;97131.66;;;9.76;100.00
23616;BME280;11985;49.404;7.734;2023-11-19T19:05:29;97121.56;;;9.73;100.00
23616;BME280;11985;49.404;7.734;2023-11-19T19:10:32;97093.44;;;9.67;100.00
23616;BME280;11985;49.404;7.734;2023-11-19T19:15:37;97093.44;;;9.67;100.00
23616;BME280;11985;49.404;7.734;2023-11-19T19:20:39;97088.19;;;9.67;100.00
23616;BME280;11985;49.404;7.734;2023-11-19T19:25:42;97086.56;;;9.66;100.00
23616;BME280;11985;49.404;7.734;2023-11-19T19:30:44;97080.47;;;9.65;100.00
23616;BME280;11985;49.404;7.734;2023-11-19T19:35:45;97083.13;;;9.65;100.00
23616;BME280;11985;49.404;7.734;2023-11-19T19:40:48;97087.19;;;9.68;100.00
23616;BME280;11985;49.404;7.734;2023-11-19T19:45:50;97099.31;;;9.69;100.00
23616;BME280;11985;49.404;7.734;2023-11-19T19:50:51;97105.97;;;9.65;100.00
23616;BME280;11985;49.404;7.734;2023-11-19T19:55:55;97104.78;;;9.67;100.00
23616;BME280;11985;49.404;7.734;2023-11-19T20:00:57;97105.97;;;9.65;100.00
23616;BME280;11985;49.404;7.734;2023-11-19T20:06:00;97104.16;;;9.72;100.00
23616;BME280;11985;49.404;7.734;2023-11-19T20:11:03;97115.47;;;9.86;100.00
23616;BME280;11985;49.404;7.734;2023-11-19T20:16:06;97125.59;;;9.89;100.00
23616;BME280;11985;49.404;7.734;2023-11-19T20:21:07;97112.44;;;9.82;100.00
23616;BME280;11985;49.404;7.734;2023-11-19T20:26:11;97121.34;;;9.74;100.00
23616;BME280;11985;49.404;7.734;2023-11-19T20:31:18;97135.31;;;9.68;100.00
23616;BME280;11985;49.404;7.734;2023-11-19T20:36:20;97139.16;;;9.66;100.00
23616;BME280;11985;49.404;7.734;2023-11-19T20:41:23;97129.63;;;9.65;100.00
23616;BME280;11985;49.404;7.734;2023-11-19T20:46:25;97133.28;;;9.64;100.00
23616;BME280;11985;49.404;7.734;2023-11-19T20:51:27;97134.50;;;9.61;100.00
23616;BME280;11985;49.404;7.734;2023-11-19T20:56:31;97129.44;;;9.60;100.00
23616;BME280;11985;49.404;7.734;2023-11-19T21:01:32;97133.09;;;9.59;100.00
23616;BME280;11985;49.404;7.734;2023-11-19T21:06:34;97139.97;;;9.60;100.00
23616;BME280;11985;49.404;7.734;2023-11-19T21:11:38;97138.97;;;9.61;100.00
23616;BME280;11985;49.404;7.734;2023-11-19T21:16:40;97140.75;;;9.60;100.00
23616;BME280;11985;49.404;7.734;2023-11-19T21:21:42;97138.34;;;9.59;100.00
23616;BME280;11985;49.404;7.734;2023-11-19T21:26:45;97144.00;;;9.69;100.00
23616;BME280;11985;49.404;7.734;2023-11-19T21:31:46;97141.16;;;9.77;100.00
23616;BME280;11985;49.404;7.734;2023-11-19T21:36:49;97135.53;;;9.73;100.00
23616;BME280;11985;49.404;7.734;2023-11-19T21:41:52;97124.19;;;9.73;100.00
23616;BME280;11985;49.404;7.734;2023-11-19T21:46:54;97128.66;;;9.72;100.00
23616;BME280;11985;49.404;7.734;2023-11-19T21:51:56;97131.47;;;9.71;100.00
23616;BME280;11985;49.404;7.734;2023-11-19T21:56:59;97118.53;;;9.63;100.00
23616;BME280;11985;49.404;7.734;2023-11-19T22:02:01;97122.97;;;9.62;100.00
23616;BME280;11985;49.404;7.734;2023-11-19T22:07:03;97118.13;;;9.59;100.00
23616;BME280;11985;49.404;7.734;2023-11-19T22:12:06;97115.31;;;9.61;100.00
23616;BME280;11985;49.404;7.734;2023-11-19T22:17:09;97120.94;;;9.58;100.00
23616;BME280;11985;49.404;7.734;2023-11-19T22:22:10;97110.84;;;9.55;100.00
23616;BME280;11985;49.404;7.734;2023-11-19T22:27:13;97109.22;;;9.53;100.00
23616;BME280;11985;49.404;7.734;2023-11-19T22:32:15;97108.03;;;9.49;100.00
23616;BME280;11985;49.404;7.734;2023-11-19T22:37:17;97112.66;;;9.47;100.00
23616;BME280;11985;49.404;7.734;2023-11-19T22:42:20;97108.81;;;9.43;100.00
23616;BME280;11985;49.404;7.734;2023-11-19T22:47:22;97098.72;;;9.40;100.00
23616;BME280;11985;49.404;7.734;2023-11-19T22:52:23;97085.38;;;9.35;100.00
23616;BME280;11985;49.404;7.734;2023-11-19T22:57:26;97089.00;;;9.28;100.00
23616;BME280;11985;49.404;7.734;2023-11-19T23:02:28;97085.38;;;9.22;100.00
23616;BME280;11985;49.404;7.734;2023-11-19T23:07:29;97089.78;;;9.15;100.00
23616;BME280;11985;49.404;7.734;2023-11-19T23:12:32;97098.09;;;9.05;100.00
23616;BME280;11985;49.404;7.734;2023-11-19T23:17:35;97083.31;;;9.04;100.00
23616;BME280;11985;49.404;7.734;2023-11-19T23:22:37;97093.00;;;9.04;100.00
23616;BME280;11985;49.404;7.734;2023-11-19T23:27:40;97095.03;;;9.02;100.00
23616;BME280;11985;49.404;7.734;2023-11-19T23:32:42;97090.78;;;9.01;100.00
23616;BME280;11985;49.404;7.734;2023-11-19T23:37:43;97080.88;;;9.03;100.00
23616;BME280;11985;49.404;7.734;2023-11-19T23:42:46;97079.28;;;9.02;100.00
23616;BME280;11985;49.404;7.734;2023-11-19T23:47:48;97080.09;;;9.02;100.00
23616;BME280;11985;49.404;7.734;2023-11-19T23:52:50;97080.88;;;9.03;100.00
23616;BME280;11985;49.404;7.734;2023-11-19T23:57:53;97082.13;;;9.07;100.00
